Other Surface Observations
Issued by NWS Great Falls, MT

Home | Current Version | Previous Version | Text Only | Print | Product List | Glossary On
Versions: 1 2 3 4 5 6 7 8 9 10 11 12 13 14 15 16 17 18 19 20 21 22 23 24 25 26 27 28 29 30 31 32 33 34 35 36 37 38 39 40 41 42 43 44 45 46 47 48 49 50
365
SXUS55 KTFX 181810
OSOTFX

AREA AWOS OBSERVATIONS
NATIONAL WEATHER SERVICE GREAT FALLS MT
1108 AM MST Wed Jan 18 2017

METAR K6S8 181755Z AUTO 20019KT 40SM 04/M07 A2968 RMK A01 T00441072
METAR K6S8 181655Z AUTO 21016KT 40SM 03/M07 A2971 RMK A01 T00331072
METAR K7S0 181755Z AUTO 34001KT 15SM M05/M07 A2976 RMK A01 T10501072
METAR K7S1 181755Z AUTO 12009KT 40SM M01/M09 A2986 RMK A01 T10051094
METAR K97M 181755Z AUTO 13004KT 40SM 09/M08 A2970 RMK A01 T00941077
METAR K97M 181655Z AUTO 14006KT 40SM 09/M08 A2971 RMK A01 T00881077
METAR K9S2 181755Z AUTO 15005KT 40SM 01/M06 A2956 RMK A01 T00051061
METAR KRPX 181655Z AUTO 18011KT 40SM 04/M09 A2962 RMK A01 T00381088
METAR KRPX 181655Z AUTO 18011KT 40SM 04/M09 A2962 RMK A01 T00381088
METAR KS01 181755Z AUTO 18003KT 40SM 05/02 A2960 RMK A01 T00500016
METAR KS34 181755Z AUTO 10000KT 10SM M03/M08 A2976 RMK A01 T10331077
METAR KTHM 181755Z AUTO 09003KT 15SM M02/M04 A2979 RMK A01 T10221044



USA.gov is the U.S. government's official web portal to all federal, state and local government web resources and services.